Hemet, CA

6:13 PM PST on March 06, 2015 (GMT -0800)
Hemet-Valleywide | Change Station
CLOSE
Current Station
Personal Weather Station
Location: Hemet, CA
Elevation: 1555 ft
Nearby Weather Stations
Active Advisory: Wind Advisory Active Notice: Public Information Statement

Elev 1555 ft 33.76 °N, 116.98 °W | Updated 15 seconds ago

Clear
Clear
68.3 °F
Feels Like 68.3 °F
N
0.0
Wind Variable Wind from SW
Gusts 0.0 mph

Today
High -- | Low -- °F
--% Chance of Precip.
Yesterday
High -- | Low -- °F
Precip. -- in
6:10 AM 5:48 PM
Full, 98% visible
Pressure 30.02 in
Visibility 10.0 miles
Clouds Clear
Dew Point 19 °F
Humidity 15%
Rainfall in
Snow Depth Not available.
UV 0 out of 12
Pollen 8.90 out of 12
Air Quality Not available.
Flu Activity Not available.
METAR KF70 070155Z AUTO 16005KT 10SM CLR 21/M08 A3002 RMK AO1

More Conditions Fewer Conditions

Pressure 30.02 in
Visibility 10.0 miles
Clouds Clear
Dew Point 19 °F
Humidity 15%
Rainfall in
Snow Depth Not available.
UV 0 out of 12
Pollen 8.90 out of 12
Air Quality Not available.
Flu Activity Not available.
METAR KF70 070155Z AUTO 16005KT 10SM CLR 21/M08 A3002 RMK AO1

More Conditions Fewer Conditions

10-Day Weather Forecast

Almanac

Astronomy

Mar. 06, 2015 Rise Set
Actual Time
Civil Twilight
Nautical Twilight
Astronomical Twilight
Moon
Length of Visible Light
Length of Day
Tomorrow will be .
, % of the Moon is Illuminated

Today's Extremes

State Highs State Lows

Community

WunderPhotos

Upload Photos

1,803,499 photos uploaded!

WunderBlogs® & News

Nearby

Air Quality

  Air Quality AQ Index Pollutant
Not available.

Snow Depth

Station Depth Elevation

Earthquake Activity

City Distance Mag. Time & Date
Minimum magnitude displayed is 2.5.

Coastal Water Temperatures

Place Temperature

Nearby Weather Stations

Wind Advisory
Statement as of 1:49 PM PST on March 06, 2015

... Wind Advisory remains in effect until noon PST Saturday...

* winds... areas of northeast to east winds 20 to 30 mph with
gusts to 50 mph.

* Location... strongest winds below passes and canyons and near
coastal mountain slopes.

* Timing... through Saturday morning.

* Impacts... strong winds will make driving difficult for high
profile vehicles.

Precautionary/preparedness actions...

A Wind Advisory means that winds of 35 mph are expected. Winds
this strong can make driving difficult... especially for high
profile vehicles. Use extra caution.